• Join FlightAware (Why Join?)
  • Login
  • US Flag 
01:37PM EDT


 

Airport Tracker/Info


-or-


 

Live Flight TrackerFlight Track Log ✈ C-GYGT ✈ 29-Apr-2013 ✈ CYKL - CYOW

Flight Track Log - Related Links

Times and Time Zones

All times are in EDT time to prevent confusion due to time zone crossing. See the C-GYGT flight status page for this flight to view local times or setup timezone preferences in your user account.

Time Position Orientation Groundspeed Altitude Reporting Facility
EDT Latitude Longitude Course Direction KTS MPH feet Rate Location/Type
08:09PM 54.6667 -66.8833 225° Southwest 180 207 9,700  Level Montreal Center
08:10PM 54.6333 -66.9500 229° Southwest 170 196 11,800 2,040 Climbing Montreal Center
08:11PM 54.6167 -67.0167 247° West 170 196 13,800 1,920 Climbing Montreal Center
08:12PM 54.5833 -67.0833 229° Southwest 180 207 15,700 1,860 Climbing Montreal Center
08:13PM 54.5500 -67.1833 240° Southwest 180 207 17,600 1,200 Climbing Montreal Center
08:14PM 54.5167 -67.2500 229° Southwest 180 207 18,100 240 Climbing Montreal Center
08:15PM 54.3646 -67.5673 225° Southwest  Level FlightAware Approximate
08:15PM 54.4833 -67.3333 235° Southwest 230 265 18,100  Level Montreal Center
08:16PM 54.4333 -67.4167 224° Southwest 250 288 18,000  Descending Montreal Center
08:17PM 54.3833 -67.5000 224° Southwest 260 299 18,100  Climbing Montreal Center
08:18PM 54.3500 -67.6000 240° Southwest 250 288 18,000 -60 Descending Montreal Center
08:19PM 54.2833 -67.6667 210° Southwest 250 288 18,000  Level Montreal Center
08:20PM 54.2333 -67.7667 229° Southwest 250 288 18,000  Level Montreal Center
08:21PM 54.2000 -67.8667 240° Southwest 260 299 18,000  Level Montreal Center
08:22PM 54.1500 -67.9333 218° Southwest 250 288 18,000  Level Montreal Center
08:23PM 54.0833 -68.0333 221° Southwest 250 288 18,000  Level Montreal Center
08:24PM 54.0500 -68.1167 236° Southwest 260 299 18,000  Level Montreal Center
08:25PM 53.9833 -68.2000 216° Southwest 250 288 18,000  Level Montreal Center
08:26PM 53.9333 -68.2833 224° Southwest 250 288 18,000  Level Montreal Center
08:27PM 53.8833 -68.3500 218° Southwest 240 276 18,000  Level Montreal Center
08:28PM 53.8500 -68.4500 241° Southwest 240 276 18,000  Level Montreal Center
08:29PM 53.8000 -68.5167 218° Southwest 240 276 18,000  Level Montreal Center
08:30PM 53.7500 -68.6000 225° Southwest 230 265 18,000  Level Montreal Center
08:31PM 53.7000 -68.6667 218° Southwest 230 265 18,000  Level Montreal Center
08:32PM 53.6667 -68.7667 241° Southwest 240 276 18,000  Level Montreal Center
08:33PM 53.6167 -68.8333 218° Southwest 230 265 18,000  Level Montreal Center
08:34PM 53.5667 -68.9000 218° Southwest 230 265 18,000  Level Montreal Center
08:35PM 53.5167 -68.9833 225° Southwest 230 265 18,000  Level Montreal Center
08:36PM 53.4833 -69.0500 230° Southwest 230 265 18,000  Level Montreal Center
08:37PM 53.4333 -69.1500 230° Southwest 230 265 18,000  Level Montreal Center
08:38PM 53.3833 -69.2167 219° Southwest 230 265 18,000  Level Montreal Center
08:39PM 53.3333 -69.3000 225° Southwest 230 265 18,000  Level Montreal Center
08:40PM 53.2833 -69.3667 219° Southwest 230 265 18,000  Level Montreal Center
08:41PM 53.2500 -69.4333 230° Southwest 230 265 18,000  Level Montreal Center
08:42PM 53.2000 -69.5167 225° Southwest 230 265 18,000  Level Montreal Center
08:43PM 53.1500 -69.5833 219° Southwest 220 253 18,000  Level Montreal Center
08:44PM 53.1000 -69.6500 219° Southwest 230 265 18,000  Level Montreal Center
08:45PM 53.0500 -69.7333 225° Southwest 230 265 18,000  Level Montreal Center
08:46PM 53.0167 -69.8000 230° Southwest 230 265 18,000  Level Montreal Center
08:47PM 52.9667 -69.9000 230° Southwest 230 265 18,000  Level Montreal Center
08:48PM 52.9333 -69.9500 222° Southwest 230 265 18,000  Level Montreal Center
08:49PM 52.8667 -70.0167 211° Southwest 230 265 18,000  Level Montreal Center
08:50PM 52.8167 -70.1167 230° Southwest 230 265 18,000  Level Montreal Center
08:51PM 52.8000 -70.1667 241° Southwest 230 265 18,000  Level Montreal Center
08:52PM 52.7500 -70.2500 225° Southwest 230 265 18,000  Level Montreal Center
08:53PM 52.6833 -70.3167 211° Southwest 230 265 18,000  Level Montreal Center
08:54PM 52.6333 -70.4167 231° Southwest 230 265 18,000  Level Montreal Center
08:55PM 52.6000 -70.4667 222° Southwest 230 265 18,000  Level Montreal Center
08:56PM 52.5667 -70.5667 241° Southwest 230 265 18,000  Level Montreal Center
08:57PM 52.5167 -70.6167 211° Southwest 230 265 18,000  Level Montreal Center
08:58PM 52.4667 -70.6833 219° Southwest 230 265 18,000  Level Montreal Center
08:59PM 52.4167 -70.7667 225° Southwest 230 265 18,000  Level Montreal Center
09:00PM 52.3667 -70.8333 219° Southwest 230 265 18,000  Level Montreal Center
09:01PM 52.3167 -70.9000 219° Southwest 230 265 18,000  Level Montreal Center
09:02PM 52.2667 -70.9833 226° Southwest 230 265 18,000  Level Montreal Center
09:03PM 52.2333 -71.0500 231° Southwest 230 265 18,000  Level Montreal Center
09:04PM 52.1833 -71.1333 226° Southwest 230 265 18,000  Level Montreal Center
09:05PM 52.1333 -71.1833 212° Southwest 230 265 18,000  Level Montreal Center
09:06PM 52.0833 -71.2500 219° Southwest 230 265 18,000  Level Montreal Center
09:07PM 52.0333 -71.3333 226° Southwest 230 265 18,000  Level Montreal Center
09:08PM 51.9833 -71.4000 219° Southwest 220 253 18,000  Level Montreal Center
09:09PM 51.9500 -71.4500 223° Southwest 220 253 18,000  Level Montreal Center
09:10PM 51.9167 -71.5500 242° Southwest 220 253 18,000  Level Montreal Center
09:11PM 51.8667 -71.6000 212° Southwest 220 253 18,000  Level Montreal Center
09:12PM 51.8167 -71.6667 220° Southwest 220 253 18,000  Level Montreal Center
09:13PM 51.7667 -71.7500 226° Southwest 230 265 18,000  Level Montreal Center
09:14PM 51.7167 -71.8000 212° Southwest 230 265 18,000  Level Montreal Center
09:15PM 51.6500 -71.8667 212° Southwest 230 265 18,000  Level Montreal Center
09:16PM 51.6000 -71.9000 202° Southwest 230 265 18,000  Level Montreal Center
09:17PM 51.5333 -71.9333 197° South 230 265 18,000  Level Montreal Center
09:18PM 51.4833 -71.9833 212° Southwest 230 265 18,000  Level Montreal Center
09:19PM 51.4167 -72.0167 197° South 230 265 18,000  Level Montreal Center
09:20PM 51.3667 -72.0833 220° Southwest 230 265 18,000  Level Montreal Center
09:21PM 51.3167 -72.1333 212° Southwest 230 265 18,000  Level Montreal Center
09:22PM 51.2500 -72.1667 197° South 230 265 18,000  Level Montreal Center
09:23PM 51.2167 -72.2333 231° Southwest 230 265 18,000  Level Montreal Center
09:24PM 51.1500 -72.2833 205° Southwest 230 265 18,000  Level Montreal Center
09:25PM 51.1000 -72.3167 203° Southwest 230 265 18,000  Level Montreal Center
09:26PM 51.0333 -72.3833 212° Southwest 230 265 18,000  Level Montreal Center
09:27PM 50.9833 -72.4167 203° Southwest 230 265 18,000  Level Montreal Center
09:28PM 50.9167 -72.4667 205° Southwest 230 265 18,000  Level Montreal Center
09:29PM 50.8667 -72.5000 203° Southwest 230 265 18,000  Level Montreal Center
09:30PM 50.8167 -72.5500 212° Southwest 230 265 18,000  Level Montreal Center
09:31PM 50.7500 -72.6167 212° Southwest 230 265 18,000  Level Montreal Center
09:32PM 50.7000 -72.6500 203° Southwest 230 265 18,000  Level Montreal Center
09:33PM 50.6333 -72.7000 205° Southwest 230 265 18,000  Level Montreal Center
09:34PM 50.5833 -72.7333 203° Southwest 230 265 18,000  Level Montreal Center
09:35PM 50.5167 -72.7833 205° Southwest 230 265 18,000  Level Montreal Center
09:36PM 50.4667 -72.8167 203° Southwest 230 265 18,000  Level Montreal Center
09:37PM 50.4000 -72.8833 213° Southwest 230 265 18,100  Climbing Montreal Center
09:38PM 50.3500 -72.9333 213° Southwest 230 265 18,000 -60 Descending Montreal Center
09:39PM 50.2833 -72.9667 198° South 230 265 18,000  Level Montreal Center
09:40PM 50.2333 -73.0167 213° Southwest 230 265 18,000  Level Montreal Center
09:41PM 50.1833 -73.0500 203° Southwest 230 265 18,000  Level Montreal Center
09:42PM 50.1167 -73.1000 206° Southwest 230 265 18,100  Climbing Montreal Center
09:43PM 50.0667 -73.1667 221° Southwest 230 265 18,100 -60 Level Montreal Center
09:44PM 50.0000 -73.1833 189° South 230 265 18,000  Descending Montreal Center
09:45PM 49.9667 -73.2500 232° Southwest 230 265 18,100  Climbing Montreal Center
09:46PM 49.9000 -73.2833 198° South 230 265 18,000  Descending Montreal Center
09:47PM 49.8500 -73.3333 213° Southwest 230 265 18,100  Climbing Montreal Center
09:48PM 49.7833 -73.3833 206° Southwest 230 265 18,000 -60 Descending Montreal Center
09:49PM 49.7333 -73.4167 203° Southwest 230 265 18,000  Level Montreal Center
09:50PM 49.6667 -73.4667 206° Southwest 230 265 18,000  Level Montreal Center
09:51PM 49.6167 -73.5000 203° Southwest 230 265 18,100  Climbing Montreal Center
09:52PM 49.5500 -73.5500 206° Southwest 230 265 18,100  Level Montreal Center
09:53PM 49.4833 -73.6167 213° Southwest 240 276 18,100 -60 Level Montreal Center
09:54PM 49.4333 -73.6333 192° South 230 265 18,000  Descending Montreal Center
09:55PM 49.3833 -73.7000 221° Southwest 240 276 18,100  Climbing Montreal Center
09:56PM 49.3167 -73.7500 206° Southwest 230 265 18,100  Level Montreal Center
09:58PM 49.2000 -73.8333 205° Southwest 240 276 18,100  Level Montreal Center
09:59PM 49.1333 -73.8667 198° South 240 276 18,100  Level Montreal Center
10:00PM 49.0667 -73.9167 206° Southwest 240 276 18,100  Level Montreal Center
10:01PM 49.0167 -73.9667 213° Southwest 240 276 18,100  Level Montreal Center
10:02PM 48.9500 -74.0167 206° Southwest 240 276 18,100  Level Montreal Center
10:03PM 48.9000 -74.0500 204° Southwest 240 276 18,100  Level Montreal Center
10:04PM 48.8333 -74.1000 206° Southwest 240 276 18,100  Level Montreal Center
10:05PM 48.7667 -74.1333 198° South 240 276 18,100  Level Montreal Center
10:06PM 48.7167 -74.1833 213° Southwest 240 276 18,100  Level Montreal Center
10:07PM 48.6500 -74.2333 206° Southwest 240 276 18,100  Level Montreal Center
10:08PM 48.6000 -74.2667 204° Southwest 240 276 18,100  Level Montreal Center
10:09PM 48.5333 -74.3167 206° Southwest 240 276 18,100  Level Montreal Center
10:10PM 48.4667 -74.3667 206° Southwest 240 276 18,100  Level Montreal Center
10:11PM 48.4000 -74.4167 206° Southwest 240 276 18,100  Level Montreal Center
10:12PM 48.3500 -74.4500 204° Southwest 240 276 18,100  Level Montreal Center
10:13PM 48.2833 -74.5000 207° Southwest 240 276 18,100  Level Montreal Center
10:14PM 48.2333 -74.5500 214° Southwest 240 276 18,100  Level Montreal Center
10:15PM 48.1667 -74.5833 198° South 240 276 18,100  Level Montreal Center
10:16PM 48.1000 -74.6333 207° Southwest 240 276 18,100  Level Montreal Center
10:17PM 48.0500 -74.6667 204° Southwest 240 276 18,100  Level Montreal Center
10:18PM 47.9833 -74.7167 207° Southwest 240 276 18,100  Level Montreal Center
10:19PM 47.9167 -74.7667 207° Southwest 240 276 18,100  Level Montreal Center
10:20PM 47.8500 -74.8167 207° Southwest 240 276 18,100  Level Montreal Center
10:21PM 47.8000 -74.8500 204° Southwest 240 276 18,100  Level Montreal Center
10:22PM 47.7333 -74.9000 207° Southwest 250 288 18,100  Level Montreal Center
10:23PM 47.6833 -74.9500 214° Southwest 240 276 18,100  Level Montreal Center
10:24PM 47.6167 -75.0000 207° Southwest 240 276 18,100  Level Montreal Center
10:25PM 47.5500 -75.0167 190° South 240 276 18,100  Level Montreal Center
10:26PM 47.4833 -75.0667 207° Southwest 240 276 18,100  Level Montreal Center
10:27PM 47.4333 -75.1167 214° Southwest 240 276 18,100  Level Montreal Center
10:28PM 47.3667 -75.1500 199° South 240 276 18,100  Level Montreal Center
10:29PM 47.3000 -75.2000 207° Southwest 240 276 18,100  Level Montreal Center
10:30PM 47.2500 -75.2333 204° Southwest 250 288 18,100  Level Montreal Center
10:31PM 47.1833 -75.2500 190° South 250 288 18,100  Level Montreal Center
10:32PM 47.1000 -75.2833 195° South 250 288 18,100  Level Montreal Center
10:33PM 47.0500 -75.3000 193° South 240 276 18,100  Level Montreal Center
10:34PM 46.9833 -75.3000 180° South 240 276 18,100  Level Montreal Center
10:35PM 46.9167 -75.3333 199° South 250 288 18,100  Level Montreal Center
10:36PM 46.8500 -75.3500 190° South 240 276 18,100  Level Montreal Center
10:37PM 46.7833 -75.3500 180° South 250 288 18,100  Level Montreal Center
10:38PM 46.7000 -75.3833 195° South 250 288 18,100  Level Montreal Center
10:39PM 46.6333 -75.4000 190° South 250 288 18,100 -60 Level Montreal Center
10:40PM 46.5833 -75.4000 180° South 240 276 18,000  Descending Montreal Center
10:41PM 46.5000 -75.4333 195° South 250 288 18,100  Climbing Montreal Center
10:42PM 46.4333 -75.4500 190° South 240 276 18,100  Level Montreal Center
10:43PM 46.3667 -75.4500 180° South 240 276 18,100  Level Montreal Center
10:44PM 46.3000 -75.4833 199° South 240 276 18,100  Level Montreal Center
10:45PM 46.2333 -75.5000 190° South 240 276 18,100 -120 Level Montreal Center
10:46PM 46.1667 -75.5000 180° South 240 276 17,900 -780 Descending Montreal Center
10:47PM 46.1000 -75.4833 170° South 260 299 16,600 -1,500 Descending Montreal Center
10:48PM 46.0167 -75.4833 180° South 260 299 14,900 -1,740 Descending Montreal Center
10:49PM 45.9500 -75.4667 170° South 270 311 13,200 -1,800 Descending Montreal Center
10:50PM 45.8833 -75.4667 180° South 260 299 11,300 -1,860 Descending Montreal Center
10:51PM 45.8167 -75.4667 180° South 250 288 9,500 -1,920 Descending Montreal Center
10:52PM 45.7333 -75.4667 180° South 250 288 7,500 -1,860 Descending Montreal Center
10:53PM 45.6833 -75.4667 180° South 240 276 5,800 -1,740 Descending Montreal Center
10:54PM 45.6000 -75.4333 164° South 220 253 4,100 -900 Descending Montreal Center
10:55PM 45.5500 -75.4333 180° South 180 207 4,100  Level Montreal Center
10:56PM 45.5000 -75.4500 193° South 180 207 4,100 -420 Level Montreal Center
10:57PM 45.4500 -75.4500 180° South 190 219 3,300 -1,020 Descending Montreal Center
10:58PM 45.4000 -75.4667 193° South 200 230 2,100 -660 Descending Montreal Center
10:59PM 45.3667 -75.5167 227° Southwest 160 184 2,000 -240 Descending Montreal Center
11:00PM 45.3500 -75.5667 245° Southwest 150 173 1,700 -480 Descending Montreal Center
11:01PM 45.3167 -75.6167 227° Southwest 110 127 1,100 -600 Descending Montreal Center
11:02PM 45.3000 -75.6333 215° Southwest 100 115 600 -540 Descending Montreal Center